createdAt,value
2018-06-29T00:02:18.516Z,15.00
2018-06-29T00:04:44.442Z,15.00
2018-06-29T00:07:10.349Z,15.00
2018-06-29T00:09:36.273Z,15.00
2018-06-29T00:12:02.200Z,15.00
2018-06-29T00:14:28.105Z,15.00
2018-06-29T00:16:54.023Z,14.90
2018-06-29T00:19:20.653Z,14.90
2018-06-29T00:21:47.359Z,14.90
2018-06-29T00:24:13.278Z,14.90
2018-06-29T00:26:39.968Z,14.90
2018-06-29T00:29:05.867Z,14.90
2018-06-29T00:31:32.525Z,14.80
2018-06-29T00:33:58.454Z,14.80
2018-06-29T00:36:24.364Z,14.80
2018-06-29T00:38:51.078Z,14.70
2018-06-29T00:41:16.984Z,14.70
2018-06-29T00:43:42.905Z,14.80
2018-06-29T00:46:08.798Z,14.70
2018-06-29T00:48:34.721Z,14.70
2018-06-29T00:51:00.643Z,14.70
2018-06-29T00:53:26.543Z,14.60
2018-06-29T00:55:52.471Z,14.60
2018-06-29T00:58:18.367Z,14.60
2018-06-29T01:00:45.022Z,14.50
2018-06-29T01:03:10.929Z,14.50
2018-06-29T01:05:37.588Z,14.50
2018-06-29T01:08:03.492Z,14.50
2018-06-29T01:10:30.157Z,14.50
2018-06-29T01:12:56.070Z,14.40
2018-06-29T01:15:22.006Z,14.50
2018-06-29T01:17:47.911Z,14.50
2018-06-29T01:20:13.824Z,14.50
2018-06-29T01:22:39.761Z,14.40
2018-06-29T01:25:05.660Z,14.40
2018-06-29T01:27:32.314Z,14.30
2018-06-29T01:29:58.218Z,14.30
2018-06-29T01:32:24.876Z,14.20
2018-06-29T01:34:50.834Z,14.20
2018-06-29T01:37:16.734Z,14.20
2018-06-29T01:39:42.634Z,14.20
2018-06-29T01:42:08.528Z,14.20
2018-06-29T01:44:35.188Z,14.10
2018-06-29T01:47:01.094Z,14.10
2018-06-29T01:49:27.755Z,14.10
2018-06-29T01:51:53.654Z,14.10
2018-06-29T01:54:20.306Z,14.00
2018-06-29T01:56:46.216Z,14.00
2018-06-29T01:59:12.920Z,14.00
2018-06-29T02:01:38.819Z,14.00
2018-06-29T02:04:04.728Z,14.00
2018-06-29T02:06:30.653Z,14.00
2018-06-29T02:08:56.577Z,14.00
2018-06-29T02:11:22.502Z,14.10
2018-06-29T02:13:48.408Z,14.00
2018-06-29T02:16:14.331Z,14.00
2018-06-29T02:18:40.231Z,14.00
2018-06-29T02:21:06.906Z,14.00
2018-06-29T02:23:32.805Z,13.90
2018-06-29T02:25:58.728Z,13.90
2018-06-29T02:28:24.659Z,13.90
2018-06-29T02:30:50.695Z,13.90
2018-06-29T02:33:16.520Z,13.90
2018-06-29T02:35:42.435Z,13.90
2018-06-29T02:38:08.359Z,13.90
2018-06-29T02:40:34.275Z,13.90
2018-06-29T02:43:00.215Z,13.90
2018-06-29T02:45:26.125Z,13.90
2018-06-29T02:47:52.035Z,13.90
2018-06-29T02:50:17.963Z,13.90
2018-06-29T02:52:43.945Z,13.90
2018-06-29T02:55:09.818Z,13.80
2018-06-29T02:57:35.743Z,13.80
2018-06-29T03:00:01.673Z,13.80
2018-06-29T03:02:27.578Z,13.80
2018-06-29T03:04:53.510Z,13.70
2018-06-29T03:07:19.413Z,13.70
2018-06-29T03:09:45.331Z,13.70
2018-06-29T03:12:11.246Z,13.70
2018-06-29T03:14:37.146Z,13.70
2018-06-29T03:17:03.071Z,13.70
2018-06-29T03:19:28.968Z,13.70
2018-06-29T03:21:55.653Z,13.60
2018-06-29T03:24:21.556Z,13.60
2018-06-29T03:26:47.464Z,13.60
2018-06-29T03:29:14.130Z,13.60
2018-06-29T03:31:40.042Z,13.60
2018-06-29T03:34:05.976Z,13.60
2018-06-29T03:36:31.877Z,13.60
2018-06-29T03:38:57.794Z,13.70
2018-06-29T03:41:23.687Z,13.70
2018-06-29T03:43:49.619Z,13.60
2018-06-29T03:46:16.261Z,13.60
2018-06-29T03:48:42.920Z,13.60
2018-06-29T03:51:08.852Z,13.60
2018-06-29T03:53:34.769Z,13.70
2018-06-29T03:56:00.695Z,13.70
2018-06-29T03:58:26.598Z,13.70
2018-06-29T04:00:52.531Z,13.80
2018-06-29T04:03:18.488Z,13.80
2018-06-29T04:05:44.383Z,13.80
2018-06-29T04:08:10.286Z,13.90
2018-06-29T04:10:36.211Z,13.90
2018-06-29T04:13:02.261Z,13.90
2018-06-29T04:15:28.055Z,13.90
2018-06-29T04:17:53.974Z,13.90
2018-06-29T04:20:19.874Z,14.00
2018-06-29T04:22:46.553Z,14.00
2018-06-29T04:25:12.476Z,14.00
2018-06-29T04:27:38.390Z,14.10
2018-06-29T04:30:04.285Z,14.20
2018-06-29T04:32:30.960Z,14.30
2018-06-29T04:34:56.864Z,14.30
2018-06-29T04:37:22.774Z,14.30
2018-06-29T04:39:48.719Z,14.40
2018-06-29T04:42:14.628Z,14.40
2018-06-29T04:44:40.555Z,14.50
2018-06-29T04:47:06.461Z,14.50
2018-06-29T04:49:32.392Z,14.60
2018-06-29T04:51:58.287Z,14.60
2018-06-29T04:54:25.303Z,14.70
2018-06-29T04:56:51.216Z,14.70
2018-06-29T04:59:17.121Z,14.80
2018-06-29T05:01:43.051Z,14.80
2018-06-29T05:04:08.971Z,14.90
2018-06-29T05:06:34.896Z,14.90
2018-06-29T05:09:00.788Z,15.00
2018-06-29T05:11:26.741Z,15.10
2018-06-29T05:13:52.655Z,15.20
2018-06-29T05:16:18.589Z,15.20
2018-06-29T05:18:44.483Z,15.30
2018-06-29T05:21:10.400Z,15.30
2018-06-29T05:23:36.323Z,15.30
2018-06-29T05:26:02.230Z,15.40
2018-06-29T05:28:28.215Z,15.50
2018-06-29T05:30:54.087Z,15.50
2018-06-29T05:33:20.008Z,15.60
2018-06-29T05:35:45.926Z,15.60
2018-06-29T05:38:11.962Z,15.80
2018-06-29T05:40:37.870Z,15.80
2018-06-29T05:43:03.775Z,15.80
2018-06-29T05:45:29.698Z,16.00
2018-06-29T05:47:56.339Z,16.10
2018-06-29T05:50:22.999Z,16.10
2018-06-29T05:52:48.903Z,16.10
2018-06-29T05:55:14.827Z,16.10
2018-06-29T05:57:40.727Z,16.10
2018-06-29T06:00:07.636Z,16.30
2018-06-29T06:02:33.539Z,16.20
2018-06-29T06:04:59.440Z,16.30
2018-06-29T06:07:25.384Z,16.40
2018-06-29T06:09:51.300Z,16.50
2018-06-29T06:12:17.219Z,16.50
2018-06-29T06:14:43.131Z,16.60
2018-06-29T06:17:09.052Z,16.60
2018-06-29T06:19:34.950Z,16.70
2018-06-29T06:22:01.666Z,17.10
2018-06-29T06:24:27.548Z,17.00
2018-06-29T06:26:53.481Z,17.20
2018-06-29T06:29:19.402Z,17.20
2018-06-29T06:31:45.304Z,17.40
2018-06-29T06:34:11.220Z,17.50
2018-06-29T06:36:37.139Z,17.70
2018-06-29T06:39:03.051Z,18.20
2018-06-29T06:41:28.970Z,19.30
2018-06-29T06:43:54.894Z,20.90
2018-06-29T06:46:20.798Z,22.40
2018-06-29T06:48:47.463Z,24.10
2018-06-29T06:51:13.363Z,24.10
2018-06-29T06:53:40.048Z,24.80
2018-06-29T06:56:05.952Z,24.80
2018-06-29T06:58:31.873Z,25.40
2018-06-29T07:00:57.789Z,25.30
2018-06-29T07:03:23.692Z,25.70
2018-06-29T07:05:49.634Z,26.20
2018-06-29T07:08:15.533Z,26.40
2018-06-29T07:10:42.192Z,27.00
2018-06-29T07:13:08.100Z,27.00
2018-06-29T07:15:33.999Z,26.90
2018-06-29T07:18:00.685Z,27.40
2018-06-29T07:20:26.589Z,27.30
2018-06-29T07:22:52.546Z,27.30
2018-06-29T07:25:18.454Z,27.50
2018-06-29T07:27:44.404Z,27.90
2018-06-29T07:30:10.330Z,28.40
2018-06-29T07:32:36.231Z,28.90
2018-06-29T07:35:02.150Z,29.10
2018-06-29T07:37:28.050Z,29.00
2018-06-29T07:39:53.962Z,28.70
2018-06-29T07:42:19.867Z,29.40
2018-06-29T07:44:45.796Z,29.60
2018-06-29T07:47:11.704Z,29.70
2018-06-29T07:49:38.403Z,30.10
2018-06-29T07:52:04.316Z,30.10
2018-06-29T07:54:30.232Z,30.60
2018-06-29T07:56:56.160Z,30.10
2018-06-29T07:59:22.076Z,29.80
2018-06-29T08:01:48.015Z,30.10
2018-06-29T08:04:13.910Z,30.30
2018-06-29T08:06:39.830Z,30.70
2018-06-29T08:09:05.742Z,30.40
2018-06-29T08:11:31.662Z,30.70
2018-06-29T08:13:57.568Z,31.40
2018-06-29T08:16:23.514Z,31.70
2018-06-29T08:18:49.415Z,31.80
2018-06-29T08:21:15.333Z,32.10
2018-06-29T08:23:41.255Z,32.60
2018-06-29T08:26:07.152Z,32.00
2018-06-29T08:28:33.828Z,31.30
2018-06-29T08:30:59.731Z,31.30
2018-06-29T08:33:25.650Z,31.70
2018-06-29T08:35:51.561Z,32.00
2018-06-29T08:38:18.237Z,32.80
2018-06-29T08:40:44.151Z,32.80
2018-06-29T08:43:10.073Z,32.00
2018-06-29T08:45:35.978Z,32.50
2018-06-29T08:48:01.893Z,31.90
2018-06-29T08:50:28.553Z,32.10
2018-06-29T08:52:54.441Z,32.10
2018-06-29T08:55:21.107Z,30.80
2018-06-29T08:57:47.015Z,30.70
2018-06-29T09:00:12.928Z,31.30
2018-06-29T09:02:39.592Z,32.20
2018-06-29T09:05:05.558Z,32.20
2018-06-29T09:07:31.475Z,32.70
2018-06-29T09:09:57.381Z,32.90
2018-06-29T09:12:23.331Z,32.10
2018-06-29T09:14:49.251Z,32.40
2018-06-29T09:17:15.168Z,33.00
2018-06-29T09:19:41.075Z,32.80
2018-06-29T09:22:07.002Z,32.60
2018-06-29T09:24:32.916Z,32.10
2018-06-29T09:26:58.815Z,31.00
2018-06-29T09:29:24.748Z,31.10
2018-06-29T09:31:50.654Z,31.40
2018-06-29T09:34:16.584Z,31.80
2018-06-29T09:36:42.496Z,31.70
2018-06-29T09:39:08.418Z,31.40
2018-06-29T09:41:34.328Z,32.10
2018-06-29T09:44:00.255Z,31.80
2018-06-29T09:46:26.149Z,31.60
2018-06-29T09:48:52.807Z,32.00
2018-06-29T09:51:18.724Z,32.00
2018-06-29T09:53:44.622Z,32.10
2018-06-29T09:56:11.285Z,31.70
2018-06-29T09:58:37.205Z,31.70
2018-06-29T10:01:03.207Z,31.60
2018-06-29T10:03:29.097Z,30.70
2018-06-29T10:05:55.045Z,30.10
2018-06-29T10:08:20.954Z,30.20
2018-06-29T10:10:46.847Z,30.00
2018-06-29T10:13:12.772Z,29.60
2018-06-29T10:15:38.674Z,29.20
2018-06-29T10:18:04.597Z,28.70
2018-06-29T10:20:30.496Z,28.60
2018-06-29T10:22:57.195Z,27.80
2018-06-29T10:25:23.144Z,27.80
2018-06-29T10:27:49.032Z,27.30
2018-06-29T10:30:14.934Z,26.90
2018-06-29T10:32:40.860Z,26.80
2018-06-29T10:35:06.813Z,26.90
2018-06-29T10:37:32.722Z,26.90
2018-06-29T10:39:58.632Z,27.30
2018-06-29T10:42:24.537Z,26.90
2018-06-29T10:44:50.477Z,27.10
2018-06-29T10:47:16.391Z,27.00
2018-06-29T10:49:42.303Z,27.00
2018-06-29T10:52:08.210Z,26.70
2018-06-29T10:54:34.126Z,26.70
2018-06-29T10:57:00.125Z,26.60
2018-06-29T10:59:26.811Z,26.30
2018-06-29T11:01:52.727Z,26.30
2018-06-29T11:04:18.639Z,26.30
2018-06-29T11:06:44.573Z,26.20
2018-06-29T11:09:10.492Z,26.20
2018-06-29T11:11:36.444Z,26.50
2018-06-29T11:14:02.351Z,27.00
2018-06-29T11:16:28.291Z,26.80
2018-06-29T11:18:54.203Z,26.80
2018-06-29T11:21:20.118Z,26.50
2018-06-29T11:23:46.792Z,26.20
2018-06-29T11:26:13.436Z,26.50
2018-06-29T11:28:40.127Z,26.30
2018-06-29T11:31:06.039Z,26.20
2018-06-29T11:33:31.974Z,26.20
2018-06-29T11:35:57.864Z,26.30
2018-06-29T11:38:23.829Z,26.40
2018-06-29T11:40:49.735Z,26.10
2018-06-29T11:43:16.443Z,25.70
2018-06-29T11:45:42.337Z,25.70
2018-06-29T11:48:09.007Z,25.90
2018-06-29T11:50:34.949Z,25.90
2018-06-29T11:53:00.855Z,26.00
2018-06-29T11:55:26.775Z,26.20
2018-06-29T11:57:52.684Z,26.00
2018-06-29T12:00:18.610Z,25.80
2018-06-29T12:02:44.523Z,25.90
2018-06-29T12:05:11.176Z,25.70
2018-06-29T12:07:37.112Z,25.70
2018-06-29T12:10:03.054Z,25.80
2018-06-29T12:12:28.962Z,25.70
2018-06-29T12:14:54.877Z,25.50
2018-06-29T12:17:20.802Z,25.30
2018-06-29T12:19:46.702Z,25.00
2018-06-29T12:22:12.624Z,24.80
2018-06-29T12:24:38.545Z,24.80
2018-06-29T12:27:04.490Z,24.40
2018-06-29T12:29:30.411Z,24.40
2018-06-29T12:31:56.340Z,24.40
2018-06-29T12:34:22.249Z,24.40
2018-06-29T12:36:48.158Z,24.40
2018-06-29T12:39:14.080Z,24.00
2018-06-29T12:41:39.987Z,23.70
2018-06-29T12:44:05.903Z,23.80
2018-06-29T12:46:32.547Z,23.60
2018-06-29T12:48:58.471Z,23.60
2018-06-29T12:51:24.399Z,23.50
2018-06-29T12:53:50.332Z,23.50
2018-06-29T12:56:16.241Z,23.40
2018-06-29T12:58:42.167Z,23.30
2018-06-29T13:01:08.148Z,23.40
2018-06-29T13:03:34.059Z,23.20
2018-06-29T13:05:59.999Z,23.30
2018-06-29T13:08:26.654Z,23.30
2018-06-29T13:10:52.586Z,23.30
2018-06-29T13:13:18.502Z,23.50
2018-06-29T13:15:44.449Z,23.50
2018-06-29T13:18:10.356Z,23.60
2018-06-29T13:20:36.260Z,23.40
2018-06-29T13:23:02.207Z,23.50
2018-06-29T13:25:28.128Z,23.60
2018-06-29T13:27:54.047Z,23.30
2018-06-29T13:30:20.022Z,23.10
2018-06-29T13:32:45.915Z,23.00
2018-06-29T13:35:11.852Z,22.90
2018-06-29T13:37:37.758Z,22.90
2018-06-29T13:40:03.688Z,22.70
2018-06-29T13:42:29.582Z,22.80
2018-06-29T13:44:55.512Z,22.90
2018-06-29T13:47:21.416Z,23.00
2018-06-29T13:49:47.364Z,23.00
2018-06-29T13:52:13.263Z,23.00
2018-06-29T13:54:39.183Z,22.80
2018-06-29T13:57:05.146Z,22.60
2018-06-29T13:59:31.107Z,22.60
2018-06-29T14:01:57.035Z,22.70
2018-06-29T14:04:22.973Z,22.60
2018-06-29T14:06:48.888Z,22.70
2018-06-29T14:09:14.847Z,22.70
2018-06-29T14:11:40.755Z,22.80
2018-06-29T14:14:06.689Z,22.80
2018-06-29T14:16:32.588Z,22.70
2018-06-29T14:18:58.534Z,22.60
2018-06-29T14:21:24.447Z,22.50
2018-06-29T14:23:50.354Z,22.60
2018-06-29T14:26:16.278Z,22.40
2018-06-29T14:28:42.190Z,22.40
2018-06-29T14:31:08.132Z,22.30
2018-06-29T14:33:34.071Z,22.30
2018-06-29T14:36:00.772Z,22.10
2018-06-29T14:38:26.689Z,22.10
2018-06-29T14:40:52.637Z,22.10
2018-06-29T14:43:18.550Z,22.10
2018-06-29T14:45:44.492Z,22.10
2018-06-29T14:48:10.406Z,22.10
2018-06-29T14:50:36.326Z,22.10
2018-06-29T14:53:02.232Z,21.90
2018-06-29T14:55:28.188Z,21.90
2018-06-29T14:57:54.102Z,22.10
2018-06-29T15:00:20.090Z,22.10
2018-06-29T15:02:45.999Z,22.00
2018-06-29T15:05:11.930Z,21.90
2018-06-29T15:07:37.841Z,21.80
2018-06-29T15:10:03.790Z,21.90
2018-06-29T15:12:29.691Z,21.80
2018-06-29T15:14:55.631Z,21.70
2018-06-29T15:17:21.554Z,21.80
2018-06-29T15:19:49.103Z,21.90
2018-06-29T15:22:15.793Z,21.90
2018-06-29T15:24:41.707Z,21.90
2018-06-29T15:27:07.674Z,21.80
2018-06-29T15:29:33.567Z,21.70
2018-06-29T15:32:00.240Z,21.60
2018-06-29T15:34:26.150Z,21.60
2018-06-29T15:36:52.089Z,21.50
2018-06-29T15:39:17.997Z,21.50
2018-06-29T15:41:43.957Z,21.30
2018-06-29T15:44:09.878Z,21.30
2018-06-29T15:46:35.801Z,21.50
2018-06-29T15:49:09.357Z,21.30
2018-06-29T15:51:35.297Z,21.30
2018-06-29T15:54:01.205Z,21.40
2018-06-29T15:56:27.151Z,21.30
2018-06-29T15:58:53.066Z,21.20
2018-06-29T16:01:19.010Z,21.20
2018-06-29T16:03:44.935Z,21.30
2018-06-29T16:06:10.868Z,21.30
2018-06-29T16:08:36.775Z,21.20
2018-06-29T16:11:02.698Z,21.10
2018-06-29T16:13:28.616Z,21.20
2018-06-29T16:15:54.547Z,21.20
2018-06-29T16:18:20.467Z,21.20
2018-06-29T16:20:46.409Z,21.20
2018-06-29T16:23:13.057Z,21.10
2018-06-29T16:25:39.742Z,21.20
2018-06-29T16:28:05.649Z,21.10
2018-06-29T16:30:31.592Z,21.10
2018-06-29T16:32:57.528Z,21.00
2018-06-29T16:35:23.437Z,21.00
2018-06-29T16:37:49.390Z,21.10
2018-06-29T16:40:16.066Z,20.90
2018-06-29T16:42:42.021Z,20.90
2018-06-29T16:45:07.932Z,20.80
2018-06-29T16:47:33.885Z,20.90
2018-06-29T16:49:59.797Z,20.80
2018-06-29T16:52:25.727Z,20.70
2018-06-29T16:54:51.648Z,20.70
2018-06-29T16:57:17.590Z,20.60
2018-06-29T16:59:44.247Z,20.70
2018-06-29T17:02:10.915Z,20.80
2018-06-29T17:04:36.828Z,20.70
2018-06-29T17:07:02.779Z,20.80
2018-06-29T17:09:28.674Z,20.80
2018-06-29T17:11:54.618Z,20.60
2018-06-29T17:14:20.558Z,20.70
2018-06-29T17:16:46.496Z,20.60
2018-06-29T17:19:13.150Z,20.40
2018-06-29T17:21:39.096Z,20.40
2018-06-29T17:24:05.010Z,20.40
2018-06-29T17:26:30.969Z,20.40
2018-06-29T17:28:56.955Z,20.50
2018-06-29T17:31:22.846Z,20.50
2018-06-29T17:33:49.512Z,20.40
2018-06-29T17:36:15.450Z,20.40
2018-06-29T17:38:41.389Z,20.30
2018-06-29T17:41:07.300Z,20.50
2018-06-29T17:43:33.251Z,20.40
2018-06-29T17:45:59.170Z,20.40
2018-06-29T17:48:25.123Z,20.30
2018-06-29T17:50:51.776Z,20.30
2018-06-29T17:53:18.447Z,20.20
2018-06-29T17:55:44.373Z,20.20
2018-06-29T17:58:10.317Z,20.10
2018-06-29T18:00:36.222Z,20.10
2018-06-29T18:03:02.162Z,20.10
2018-06-29T18:05:28.087Z,20.00
2018-06-29T18:07:54.015Z,19.90
2018-06-29T18:10:19.938Z,19.90
2018-06-29T18:12:45.893Z,19.80
2018-06-29T18:15:11.801Z,19.80
2018-06-29T18:17:38.465Z,19.80
2018-06-29T18:20:04.363Z,19.80
2018-06-29T18:22:30.304Z,19.70
2018-06-29T18:24:56.214Z,19.70
2018-06-29T18:27:22.142Z,19.60
2018-06-29T18:29:48.143Z,19.60
2018-06-29T18:32:14.042Z,19.60
2018-06-29T18:34:39.972Z,19.50
2018-06-29T18:37:05.904Z,19.40
2018-06-29T18:39:32.552Z,19.30
2018-06-29T18:41:58.501Z,19.30
2018-06-29T18:44:24.662Z,19.20
2018-06-29T18:46:51.335Z,19.30
2018-06-29T18:49:18.009Z,19.20
2018-06-29T18:51:43.922Z,19.20
2018-06-29T18:54:09.859Z,19.10
2018-06-29T18:56:35.779Z,19.10
2018-06-29T18:59:01.731Z,19.10
2018-06-29T19:01:27.700Z,19.00
2018-06-29T19:03:53.607Z,19.00
2018-06-29T19:06:20.256Z,18.90
2018-06-29T19:08:46.192Z,18.90
2018-06-29T19:11:12.098Z,18.90
2018-06-29T19:13:38.036Z,18.90
2018-06-29T19:16:03.939Z,18.80
2018-06-29T19:18:29.920Z,18.80
2018-06-29T19:20:55.810Z,18.80
2018-06-29T19:23:21.752Z,18.70
2018-06-29T19:25:48.394Z,18.60
2018-06-29T19:28:14.322Z,18.50
2018-06-29T19:30:40.338Z,18.50
2018-06-29T19:33:06.174Z,18.40
2018-06-29T19:35:32.094Z,18.30
2018-06-29T19:37:57.996Z,18.30
2018-06-29T19:40:23.917Z,18.30
2018-06-29T19:42:49.839Z,18.30
2018-06-29T19:45:15.786Z,18.30
2018-06-29T19:47:42.452Z,18.10
2018-06-29T19:50:08.383Z,18.10
2018-06-29T19:52:34.319Z,18.10
2018-06-29T19:55:00.261Z,18.10
2018-06-29T19:57:26.179Z,18.00
2018-06-29T19:59:52.113Z,17.90
2018-06-29T20:02:18.762Z,17.80
2018-06-29T20:04:44.795Z,17.80
2018-06-29T20:07:10.680Z,17.70
2018-06-29T20:09:36.629Z,17.70
2018-06-29T20:12:02.541Z,17.60
2018-06-29T20:14:28.484Z,17.60
2018-06-29T20:16:54.390Z,17.50
2018-06-29T20:19:20.370Z,17.50
2018-06-29T20:21:46.282Z,17.40
2018-06-29T20:24:12.221Z,17.30
2018-06-29T20:26:38.138Z,17.40
2018-06-29T20:29:04.079Z,17.30
2018-06-29T20:31:29.982Z,17.20
2018-06-29T20:33:55.930Z,17.20
2018-06-29T20:36:21.848Z,17.10
2018-06-29T20:38:47.872Z,17.10
2018-06-29T20:41:14.442Z,17.00
2018-06-29T20:43:40.388Z,17.00
2018-06-29T20:46:06.335Z,16.90
2018-06-29T20:48:32.292Z,16.90
2018-06-29T20:50:58.225Z,16.80
2018-06-29T20:53:24.131Z,16.80
2018-06-29T20:55:50.840Z,16.70
2018-06-29T20:58:16.776Z,16.70
2018-06-29T21:00:42.735Z,16.70
2018-06-29T21:03:08.708Z,16.60
2018-06-29T21:05:34.685Z,16.50
2018-06-29T21:08:01.335Z,16.50
2018-06-29T21:10:28.007Z,16.40
2018-06-29T21:12:53.902Z,16.40
2018-06-29T21:15:20.582Z,16.30
2018-06-29T21:17:46.533Z,16.30
2018-06-29T21:20:12.451Z,16.30
2018-06-29T21:22:38.357Z,16.20
2018-06-29T21:25:04.312Z,16.20
2018-06-29T21:27:30.960Z,16.10
2018-06-29T21:29:57.639Z,16.00
2018-06-29T21:32:23.547Z,16.00
2018-06-29T21:34:49.493Z,16.00
2018-06-29T21:37:15.402Z,15.90
2018-06-29T21:39:41.340Z,15.90
2018-06-29T21:42:07.356Z,15.90
2018-06-29T21:44:33.289Z,15.80
2018-06-29T21:46:59.220Z,15.80
2018-06-29T21:49:25.134Z,15.70
2018-06-29T21:51:51.071Z,15.70
2018-06-29T21:54:17.018Z,15.70
2018-06-29T21:56:42.940Z,15.60
2018-06-29T21:59:08.871Z,15.60
2018-06-29T22:01:34.798Z,15.60
2018-06-29T22:04:00.714Z,15.50
2018-06-29T22:06:26.644Z,15.50
2018-06-29T22:08:52.561Z,15.50
2018-06-29T22:11:18.524Z,15.40
2018-06-29T22:13:44.441Z,15.40
2018-06-29T22:16:10.376Z,15.40
2018-06-29T22:18:36.275Z,15.30
2018-06-29T22:21:02.207Z,15.30
2018-06-29T22:23:28.116Z,15.20
2018-06-29T22:25:54.076Z,15.20
2018-06-29T22:28:20.734Z,15.10
2018-06-29T22:30:47.410Z,15.10
2018-06-29T22:33:13.341Z,15.10
2018-06-29T22:35:39.301Z,15.10
2018-06-29T22:38:05.988Z,15.00
2018-06-29T22:40:31.983Z,15.00
2018-06-29T22:42:58.658Z,14.90
2018-06-29T22:45:24.602Z,14.90
2018-06-29T22:47:51.305Z,14.90
2018-06-29T22:50:17.215Z,14.90
2018-06-29T22:52:43.203Z,14.90
2018-06-29T22:55:09.896Z,14.80
2018-06-29T22:57:35.885Z,14.80
2018-06-29T23:00:02.559Z,14.70
2018-06-29T23:02:28.515Z,14.70
2018-06-29T23:04:54.430Z,14.60
2018-06-29T23:07:20.401Z,14.60
2018-06-29T23:09:46.348Z,14.60
2018-06-29T23:12:12.283Z,14.50
2018-06-29T23:14:38.199Z,14.40
2018-06-29T23:17:04.173Z,14.40
2018-06-29T23:19:30.838Z,14.40
2018-06-29T23:21:56.779Z,14.30
2018-06-29T23:24:22.684Z,14.30
2018-06-29T23:26:48.632Z,14.40
2018-06-29T23:29:14.551Z,14.30
2018-06-29T23:31:40.487Z,14.30
2018-06-29T23:34:06.403Z,14.30
2018-06-29T23:36:32.339Z,14.20
2018-06-29T23:38:58.263Z,14.20
2018-06-29T23:41:24.204Z,14.10
2018-06-29T23:43:50.111Z,14.10
2018-06-29T23:46:16.039Z,14.00
2018-06-29T23:48:41.949Z,14.00
2018-06-29T23:51:07.883Z,14.00
2018-06-29T23:53:33.788Z,13.90
2018-06-29T23:55:59.690Z,13.90
2018-06-29T23:58:25.614Z,13.80
